sensor_id;sensor_type;location;lat;lon;timestamp;pressure;altitude;pressure_sealevel;temperature;humidity
85794;BME280;76242;41.478;22.082;2024-02-26T00:01:49;99129.03;;;11.48;82.22
85794;BME280;76242;41.478;22.082;2024-02-26T00:04:15;99136.28;;;11.53;83.06
85794;BME280;76242;41.478;22.082;2024-02-26T00:06:41;99134.22;;;11.50;82.24
85794;BME280;76242;41.478;22.082;2024-02-26T00:09:10;99122.34;;;11.49;82.37
85794;BME280;76242;41.478;22.082;2024-02-26T00:11:36;99113.59;;;11.47;82.17
85794;BME280;76242;41.478;22.082;2024-02-26T00:14:03;99122.81;;;11.51;82.42
85794;BME280;76242;41.478;22.082;2024-02-26T00:16:29;99114.50;;;11.51;82.66
85794;BME280;76242;41.478;22.082;2024-02-26T00:18:57;99119.22;;;11.51;82.49
85794;BME280;76242;41.478;22.082;2024-02-26T00:21:23;99110.94;;;11.51;81.82
85794;BME280;76242;41.478;22.082;2024-02-26T00:23:53;99118.44;;;11.50;82.29
85794;BME280;76242;41.478;22.082;2024-02-26T00:26:19;99117.63;;;11.50;82.74
85794;BME280;76242;41.478;22.082;2024-02-26T00:28:45;99122.81;;;11.51;82.56
85794;BME280;76242;41.478;22.082;2024-02-26T00:31:14;99118.44;;;11.50;82.69
85794;BME280;76242;41.478;22.082;2024-02-26T00:33:43;99121.63;;;11.52;81.87
85794;BME280;76242;41.478;22.082;2024-02-26T00:36:11;99113.25;;;11.49;83.69
85794;BME280;76242;41.478;22.082;2024-02-26T00:38:37;99111.97;;;11.46;83.00
85794;BME280;76242;41.478;22.082;2024-02-26T00:41:02;99112.91;;;11.50;83.11
85794;BME280;76242;41.478;22.082;2024-02-26T00:43:28;99112.09;;;11.50;83.01
85794;BME280;76242;41.478;22.082;2024-02-26T00:45:55;99128.78;;;11.53;82.90
85794;BME280;76242;41.478;22.082;2024-02-26T00:48:21;99122.44;;;11.53;82.35
85794;BME280;76242;41.478;22.082;2024-02-26T00:50:46;99122.13;;;11.55;83.26
85794;BME280;76242;41.478;22.082;2024-02-26T00:53:15;99119.00;;;11.56;83.24
85794;BME280;76242;41.478;22.082;2024-02-26T00:55:41;99116.59;;;11.55;82.98
85794;BME280;76242;41.478;22.082;2024-02-26T00:58:07;99116.22;;;11.56;83.29
85794;BME280;76242;41.478;22.082;2024-02-26T01:00:33;99101.94;;;11.54;83.58
85794;BME280;76242;41.478;22.082;2024-02-26T01:02:59;99105.31;;;11.47;84.16
85794;BME280;76242;41.478;22.082;2024-02-26T01:05:25;99102.78;;;11.42;83.43
85794;BME280;76242;41.478;22.082;2024-02-26T01:07:51;99104.06;;;11.33;83.24
85794;BME280;76242;41.478;22.082;2024-02-26T01:10:20;99104.53;;;11.22;84.32
85794;BME280;76242;41.478;22.082;2024-02-26T01:12:45;99098.56;;;11.20;84.07
85794;BME280;76242;41.478;22.082;2024-02-26T01:15:14;99090.94;;;11.17;83.42
85794;BME280;76242;41.478;22.082;2024-02-26T01:17:40;99092.09;;;11.16;83.32
85794;BME280;76242;41.478;22.082;2024-02-26T01:20:06;99092.56;;;11.18;83.38
85794;BME280;76242;41.478;22.082;2024-02-26T01:22:38;99084.63;;;11.17;82.58
85794;BME280;76242;41.478;22.082;2024-02-26T01:25:06;99086.72;;;11.08;83.18
85794;BME280;76242;41.478;22.082;2024-02-26T01:27:34;99088.53;;;11.16;82.60
85794;BME280;76242;41.478;22.082;2024-02-26T01:29:59;99098.00;;;11.15;82.73
85794;BME280;76242;41.478;22.082;2024-02-26T01:32:29;99090.50;;;11.15;83.03
85794;BME280;76242;41.478;22.082;2024-02-26T01:35:01;99083.81;;;11.04;83.12
85794;BME280;76242;41.478;22.082;2024-02-26T01:37:47;99085.19;;;11.10;82.73
85794;BME280;76242;41.478;22.082;2024-02-26T01:40:26;99090.63;;;11.07;82.98
85794;BME280;76242;41.478;22.082;2024-02-26T01:42:52;99082.78;;;11.09;82.83
85794;BME280;76242;41.478;22.082;2024-02-26T01:45:21;99080.25;;;11.16;82.70
85794;BME280;76242;41.478;22.082;2024-02-26T01:47:52;99073.91;;;11.15;82.61
85794;BME280;76242;41.478;22.082;2024-02-26T01:50:19;99075.31;;;11.09;83.00
85794;BME280;76242;41.478;22.082;2024-02-26T01:52:50;99069.31;;;11.07;83.30
85794;BME280;76242;41.478;22.082;2024-02-26T01:55:17;99073.34;;;11.10;82.50
85794;BME280;76242;41.478;22.082;2024-02-26T01:57:45;99071.38;;;11.10;81.69
85794;BME280;76242;41.478;22.082;2024-02-26T02:00:12;99073.34;;;11.10;81.83
85794;BME280;76242;41.478;22.082;2024-02-26T02:02:39;99070.94;;;11.08;82.29
85794;BME280;76242;41.478;22.082;2024-02-26T02:05:08;99066.56;;;11.07;83.23
85794;BME280;76242;41.478;22.082;2024-02-26T02:07:35;99063.31;;;11.05;83.51
85794;BME280;76242;41.478;22.082;2024-02-26T02:10:01;99059.66;;;11.01;82.90
85794;BME280;76242;41.478;22.082;2024-02-26T02:12:28;99054.81;;;10.98;82.45
85794;BME280;76242;41.478;22.082;2024-02-26T02:14:53;99045.28;;;10.95;83.25
85794;BME280;76242;41.478;22.082;2024-02-26T02:17:19;99051.38;;;10.89;83.08
85794;BME280;76242;41.478;22.082;2024-02-26T02:19:49;99043.22;;;10.92;82.38
85794;BME280;76242;41.478;22.082;2024-02-26T02:22:14;99045.41;;;10.87;82.91
85794;BME280;76242;41.478;22.082;2024-02-26T02:24:40;99046.34;;;10.79;83.16
85794;BME280;76242;41.478;22.082;2024-02-26T02:27:07;99044.03;;;10.81;82.90
85794;BME280;76242;41.478;22.082;2024-02-26T02:29:33;99035.97;;;10.76;83.70
85794;BME280;76242;41.478;22.082;2024-02-26T02:31:59;99028.72;;;10.71;83.34
85794;BME280;76242;41.478;22.082;2024-02-26T02:34:26;99025.63;;;10.73;83.97
85794;BME280;76242;41.478;22.082;2024-02-26T02:36:53;99031.94;;;10.73;83.39
85794;BME280;76242;41.478;22.082;2024-02-26T02:39:19;99031.00;;;10.69;83.19
85794;BME280;76242;41.478;22.082;2024-02-26T02:41:45;99038.72;;;10.63;83.99
85794;BME280;76242;41.478;22.082;2024-02-26T02:44:11;99036.31;;;10.62;83.76
85794;BME280;76242;41.478;22.082;2024-02-26T02:46:37;99032.28;;;10.59;83.97
85794;BME280;76242;41.478;22.082;2024-02-26T02:49:02;99025.72;;;10.52;83.79
85794;BME280;76242;41.478;22.082;2024-02-26T02:51:28;99033.09;;;10.60;83.47
85794;BME280;76242;41.478;22.082;2024-02-26T02:53:54;99036.88;;;10.55;83.47
85794;BME280;76242;41.478;22.082;2024-02-26T02:56:21;99040.78;;;10.54;83.55
85794;BME280;76242;41.478;22.082;2024-02-26T02:58:47;99038.59;;;10.48;83.62
85794;BME280;76242;41.478;22.082;2024-02-26T03:01:15;99041.47;;;10.39;84.22
85794;BME280;76242;41.478;22.082;2024-02-26T03:03:44;99041.47;;;10.39;83.95
85794;BME280;76242;41.478;22.082;2024-02-26T03:06:10;99038.72;;;10.39;84.10
85794;BME280;76242;41.478;22.082;2024-02-26T03:08:35;99031.09;;;10.36;84.67
85794;BME280;76242;41.478;22.082;2024-02-26T03:11:05;99034.34;;;10.38;84.77
85794;BME280;76242;41.478;22.082;2024-02-26T03:13:31;99035.38;;;10.33;84.91
85794;BME280;76242;41.478;22.082;2024-02-26T03:15:58;99031.72;;;10.29;85.13
85794;BME280;76242;41.478;22.082;2024-02-26T03:18:23;99029.41;;;10.31;85.09
85794;BME280;76242;41.478;22.082;2024-02-26T03:20:49;99034.91;;;10.31;84.63
85794;BME280;76242;41.478;22.082;2024-02-26T03:23:16;99028.69;;;10.34;85.11
85794;BME280;76242;41.478;22.082;2024-02-26T03:25:45;99029.03;;;10.33;84.96
85794;BME280;76242;41.478;22.082;2024-02-26T03:28:14;99026.28;;;10.33;85.25
85794;BME280;76242;41.478;22.082;2024-02-26T03:30:39;99037.91;;;10.26;84.75
85794;BME280;76242;41.478;22.082;2024-02-26T03:33:05;99031.91;;;10.24;85.01
85794;BME280;76242;41.478;22.082;2024-02-26T03:35:31;99028.09;;;10.29;84.98
85794;BME280;76242;41.478;22.082;2024-02-26T03:37:56;99034.47;;;10.29;84.80
85794;BME280;76242;41.478;22.082;2024-02-26T03:40:22;99032.09;;;10.19;85.22
85794;BME280;76242;41.478;22.082;2024-02-26T03:42:47;99033.59;;;10.16;85.25
85794;BME280;76242;41.478;22.082;2024-02-26T03:45:13;99029.34;;;10.19;84.80
85794;BME280;76242;41.478;22.082;2024-02-26T03:47:39;99028.75;;;10.13;85.23
85794;BME280;76242;41.478;22.082;2024-02-26T03:50:07;99030.25;;;10.11;85.17
85794;BME280;76242;41.478;22.082;2024-02-26T03:52:33;99032.22;;;10.10;85.07
85794;BME280;76242;41.478;22.082;2024-02-26T03:54:59;99028.16;;;10.08;84.97
85794;BME280;76242;41.478;22.082;2024-02-26T03:57:25;99031.41;;;10.10;84.96
85794;BME280;76242;41.478;22.082;2024-02-26T03:59:50;99039.34;;;10.11;84.68
85794;BME280;76242;41.478;22.082;2024-02-26T04:02:16;99034.16;;;10.10;85.30
85794;BME280;76242;41.478;22.082;2024-02-26T04:04:44;99035.19;;;10.05;85.05
85794;BME280;76242;41.478;22.082;2024-02-26T04:07:10;99033.44;;;10.01;85.76
85794;BME280;76242;41.478;22.082;2024-02-26T04:09:36;99035.38;;;10.00;85.04
85794;BME280;76242;41.478;22.082;2024-02-26T04:12:02;99031.72;;;9.96;85.21
85794;BME280;76242;41.478;22.082;2024-02-26T04:14:28;99040.44;;;9.98;85.00
85794;BME280;76242;41.478;22.082;2024-02-26T04:16:54;99043.81;;;10.04;85.14
85794;BME280;76242;41.478;22.082;2024-02-26T04:19:20;99040.25;;;10.03;84.53
85794;BME280;76242;41.478;22.082;2024-02-26T04:21:46;99044.16;;;10.02;85.29
85794;BME280;76242;41.478;22.082;2024-02-26T04:24:12;99042.50;;;10.01;86.01
85794;BME280;76242;41.478;22.082;2024-02-26T04:26:37;99037.69;;;9.98;85.54
85794;BME280;76242;41.478;22.082;2024-02-26T04:29:03;99035.72;;;9.99;84.70
85794;BME280;76242;41.478;22.082;2024-02-26T04:31:29;99041.25;;;9.99;85.42
85794;BME280;76242;41.478;22.082;2024-02-26T04:33:55;99035.63;;;9.95;84.98
85794;BME280;76242;41.478;22.082;2024-02-26T04:36:21;99042.75;;;9.96;84.70
85794;BME280;76242;41.478;22.082;2024-02-26T04:38:49;99044.16;;;10.02;84.73
85794;BME280;76242;41.478;22.082;2024-02-26T04:41:15;99053.69;;;10.05;84.95
85794;BME280;76242;41.478;22.082;2024-02-26T04:43:40;99046.09;;;10.02;85.23
85794;BME280;76242;41.478;22.082;2024-02-26T04:46:10;99054.94;;;10.07;84.92
85794;BME280;76242;41.478;22.082;2024-02-26T04:48:37;99035.72;;;9.99;84.97
85794;BME280;76242;41.478;22.082;2024-02-26T04:51:04;99038.03;;;9.97;84.76
85794;BME280;76242;41.478;22.082;2024-02-26T04:53:30;99037.22;;;9.96;84.49
85794;BME280;76242;41.478;22.082;2024-02-26T04:55:56;99032.88;;;9.95;84.65
85794;BME280;76242;41.478;22.082;2024-02-26T04:58:22;99030.78;;;9.92;85.38
85794;BME280;76242;41.478;22.082;2024-02-26T05:00:50;99040.66;;;9.93;85.23
85794;BME280;76242;41.478;22.082;2024-02-26T05:03:16;99046.88;;;9.90;85.41
85794;BME280;76242;41.478;22.082;2024-02-26T05:05:45;99040.19;;;9.91;85.72
85794;BME280;76242;41.478;22.082;2024-02-26T05:08:16;99039.66;;;9.98;86.11
85794;BME280;76242;41.478;22.082;2024-02-26T05:11:00;99035.28;;;9.97;86.00
85794;BME280;76242;41.478;22.082;2024-02-26T05:13:28;99040.44;;;9.98;85.67
85794;BME280;76242;41.478;22.082;2024-02-26T05:15:59;99034.13;;;9.98;85.42
85794;BME280;76242;41.478;22.082;2024-02-26T05:18:25;99033.44;;;10.01;85.56
85794;BME280;76242;41.478;22.082;2024-02-26T05:20:52;99035.28;;;9.97;85.60
85794;BME280;76242;41.478;22.082;2024-02-26T05:23:20;99042.16;;;9.91;86.31
85794;BME280;76242;41.478;22.082;2024-02-26T05:25:45;99046.66;;;9.95;85.96
85794;BME280;76242;41.478;22.082;2024-02-26T05:28:13;99048.47;;;9.91;85.84
85794;BME280;76242;41.478;22.082;2024-02-26T05:30:41;99049.06;;;9.97;85.48
85794;BME280;76242;41.478;22.082;2024-02-26T05:33:07;99054.94;;;9.95;85.32
85794;BME280;76242;41.478;22.082;2024-02-26T05:35:33;99057.00;;;9.98;85.20
85794;BME280;76242;41.478;22.082;2024-02-26T05:37:58;99065.72;;;10.00;85.78
85794;BME280;76242;41.478;22.082;2024-02-26T05:40:25;99057.94;;;10.02;85.50
85794;BME280;76242;41.478;22.082;2024-02-26T05:42:51;99062.41;;;10.07;85.62
85794;BME280;76242;41.478;22.082;2024-02-26T05:45:17;99069.09;;;10.06;85.34
85794;BME280;76242;41.478;22.082;2024-02-26T05:47:46;99070.03;;;10.10;85.51
85794;BME280;76242;41.478;22.082;2024-02-26T05:50:13;99071.88;;;10.18;85.65
85794;BME280;76242;41.478;22.082;2024-02-26T05:52:40;99074.75;;;10.22;85.43
85794;BME280;76242;41.478;22.082;2024-02-26T05:55:06;99078.28;;;10.31;84.84
85794;BME280;76242;41.478;22.082;2024-02-26T05:57:32;99080.00;;;10.35;84.86
85794;BME280;76242;41.478;22.082;2024-02-26T05:59:58;99082.06;;;10.38;84.80
85794;BME280;76242;41.478;22.082;2024-02-26T06:02:30;99083.94;;;10.47;84.81
85794;BME280;76242;41.478;22.082;2024-02-26T06:04:55;99092.56;;;10.45;84.69
85794;BME280;76242;41.478;22.082;2024-02-26T06:07:21;99100.63;;;10.50;84.60
85794;BME280;76242;41.478;22.082;2024-02-26T06:09:47;99097.63;;;10.55;84.30
85794;BME280;76242;41.478;22.082;2024-02-26T06:12:13;99091.06;;;10.60;84.44
85794;BME280;76242;41.478;22.082;2024-02-26T06:14:39;99098.09;;;10.69;84.45
85794;BME280;76242;41.478;22.082;2024-02-26T06:17:05;99096.84;;;10.79;84.25
85794;BME280;76242;41.478;22.082;2024-02-26T06:19:32;99087.50;;;10.84;83.26
85794;BME280;76242;41.478;22.082;2024-02-26T06:21:58;99100.44;;;10.92;83.23
85794;BME280;76242;41.478;22.082;2024-02-26T06:24:24;99111.00;;;11.02;83.49
85794;BME280;76242;41.478;22.082;2024-02-26T06:26:49;99118.81;;;11.12;83.20
85794;BME280;76242;41.478;22.082;2024-02-26T06:29:15;99110.28;;;11.17;83.11
85794;BME280;76242;41.478;22.082;2024-02-26T06:31:45;99116.16;;;11.28;83.27
85794;BME280;76242;41.478;22.082;2024-02-26T06:34:10;99116.84;;;11.37;83.08
85794;BME280;76242;41.478;22.082;2024-02-26T06:36:37;99115.22;;;11.48;83.56
85794;BME280;76242;41.478;22.082;2024-02-26T06:39:02;99117.47;;;11.59;83.60
85794;BME280;76242;41.478;22.082;2024-02-26T06:41:28;99124.03;;;11.66;82.65
85794;BME280;76242;41.478;22.082;2024-02-26T06:43:58;99124.59;;;11.72;82.77
85794;BME280;76242;41.478;22.082;2024-02-26T06:48:59;99136.56;;;11.88;81.74
85794;BME280;76242;41.478;22.082;2024-02-26T06:51:25;99119.25;;;11.91;81.03
85794;BME280;76242;41.478;22.082;2024-02-26T06:53:50;99135.16;;;11.94;80.09
85794;BME280;76242;41.478;22.082;2024-02-26T06:56:16;99139.28;;;12.00;80.10
85794;BME280;76242;41.478;22.082;2024-02-26T06:58:46;99132.69;;;12.05;80.12
85794;BME280;76242;41.478;22.082;2024-02-26T07:33:15;99136.50;;;12.88;76.74
85794;BME280;76242;41.478;22.082;2024-02-26T07:35:41;99132.13;;;13.03;76.15
85794;BME280;76242;41.478;22.082;2024-02-26T07:38:07;99140.34;;;13.15;76.06
85794;BME280;76242;41.478;22.082;2024-02-26T07:40:32;99131.59;;;13.29;74.98
85794;BME280;76242;41.478;22.082;2024-02-26T07:42:58;99141.91;;;13.48;75.08
85794;BME280;76242;41.478;22.082;2024-02-26T07:45:26;99131.50;;;13.60;74.72
85794;BME280;76242;41.478;22.082;2024-02-26T07:47:52;99132.06;;;13.69;73.96
85794;BME280;76242;41.478;22.082;2024-02-26T07:55:36;99133.56;;;13.83;74.08
85794;BME280;76242;41.478;22.082;2024-02-26T08:06:01;99123.69;;;14.24;72.72
85794;BME280;76242;41.478;22.082;2024-02-26T08:08:27;99145.00;;;14.39;71.49
85794;BME280;76242;41.478;22.082;2024-02-26T08:10:56;99140.34;;;14.43;71.74
85794;BME280;76242;41.478;22.082;2024-02-26T08:13:25;99137.34;;;14.52;71.39
85794;BME280;76242;41.478;22.082;2024-02-26T08:16:01;99135.94;;;14.62;71.92
85794;BME280;76242;41.478;22.082;2024-02-26T08:18:51;99142.94;;;14.75;70.18
85794;BME280;76242;41.478;22.082;2024-02-26T08:21:22;99140.88;;;14.72;70.03
85794;BME280;76242;41.478;22.082;2024-02-26T08:23:51;99137.38;;;14.75;69.92
85794;BME280;76242;41.478;22.082;2024-02-26T08:26:17;99141.75;;;14.76;70.06
85794;BME280;76242;41.478;22.082;2024-02-26T08:28:45;99130.06;;;14.67;70.26
85794;BME280;76242;41.478;22.082;2024-02-26T08:31:36;99143.78;;;14.79;70.66
85794;BME280;76242;41.478;22.082;2024-02-26T08:34:39;99131.00;;;14.97;69.68
85794;BME280;76242;41.478;22.082;2024-02-26T08:46:08;99141.53;;;15.60;66.12
85794;BME280;76242;41.478;22.082;2024-02-26T09:09:18;99127.97;;;17.45;58.95
85794;BME280;76242;41.478;22.082;2024-02-26T09:11:44;99125.06;;;17.27;60.23
85794;BME280;76242;41.478;22.082;2024-02-26T09:27:15;99117.13;;;17.36;61.48
85794;BME280;76242;41.478;22.082;2024-02-26T09:29:41;99105.78;;;17.66;59.30
85794;BME280;76242;41.478;22.082;2024-02-26T09:32:27;99104.09;;;18.45;57.37
85794;BME280;76242;41.478;22.082;2024-02-26T09:35:10;99109.38;;;20.56;53.06
85794;BME280;76242;41.478;22.082;2024-02-26T09:37:46;99093.44;;;22.71;47.64
85794;BME280;76242;41.478;22.082;2024-02-26T09:44:25;99087.03;;;26.45;37.10
85794;BME280;76242;41.478;22.082;2024-02-26T09:47:14;99083.50;;;27.18;35.00
85794;BME280;76242;41.478;22.082;2024-02-26T09:49:43;99085.44;;;27.21;34.69
85794;BME280;76242;41.478;22.082;2024-02-26T09:52:09;99083.31;;;26.87;33.54
85794;BME280;76242;41.478;22.082;2024-02-26T09:54:35;99079.91;;;27.52;34.26
85794;BME280;76242;41.478;22.082;2024-02-26T09:57:02;99074.69;;;27.85;32.75
85794;BME280;76242;41.478;22.082;2024-02-26T10:00:02;99068.44;;;26.95;35.16
85794;BME280;76242;41.478;22.082;2024-02-26T10:02:53;99064.72;;;26.60;35.81
85794;BME280;76242;41.478;22.082;2024-02-26T10:05:32;99058.59;;;27.13;36.25
85794;BME280;76242;41.478;22.082;2024-02-26T10:08:38;99058.25;;;28.24;32.43
85794;BME280;76242;41.478;22.082;2024-02-26T10:11:27;99052.81;;;29.28;30.91
85794;BME280;76242;41.478;22.082;2024-02-26T10:13:58;99047.03;;;30.38;29.57
85794;BME280;76242;41.478;22.082;2024-02-26T10:16:27;99032.72;;;31.61;26.40
85794;BME280;76242;41.478;22.082;2024-02-26T10:18:54;99030.38;;;31.36;25.15
85794;BME280;76242;41.478;22.082;2024-02-26T10:31:43;99011.03;;;32.38;22.49
85794;BME280;76242;41.478;22.082;2024-02-26T10:34:09;99009.38;;;31.87;23.48
85794;BME280;76242;41.478;22.082;2024-02-26T10:36:35;99007.25;;;32.46;22.22
85794;BME280;76242;41.478;22.082;2024-02-26T10:39:04;98995.34;;;32.83;22.38
85794;BME280;76242;41.478;22.082;2024-02-26T10:41:32;98996.66;;;33.23;21.12
85794;BME280;76242;41.478;22.082;2024-02-26T10:43:58;98998.22;;;32.83;21.91
85794;BME280;76242;41.478;22.082;2024-02-26T10:46:25;98999.78;;;32.19;22.93
85794;BME280;76242;41.478;22.082;2024-02-26T10:48:52;98995.66;;;32.35;23.05
85794;BME280;76242;41.478;22.082;2024-02-26T10:51:22;98995.19;;;31.92;24.48
85794;BME280;76242;41.478;22.082;2024-02-26T10:53:51;98982.41;;;32.53;23.90
85794;BME280;76242;41.478;22.082;2024-02-26T10:56:24;98981.72;;;33.13;23.06
85794;BME280;76242;41.478;22.082;2024-02-26T10:58:53;98978.94;;;33.39;22.31
85794;BME280;76242;41.478;22.082;2024-02-26T11:01:19;98995.31;;;32.98;21.83
85794;BME280;76242;41.478;22.082;2024-02-26T11:11:32;98975.69;;;31.14;24.21
85794;BME280;76242;41.478;22.082;2024-02-26T11:14:08;98972.94;;;31.19;24.00
85794;BME280;76242;41.478;22.082;2024-02-26T11:16:42;98970.53;;;30.13;24.83
85794;BME280;76242;41.478;22.082;2024-02-26T11:19:09;98974.47;;;29.97;25.75
85794;BME280;76242;41.478;22.082;2024-02-26T11:21:37;98973.94;;;29.29;25.54
85794;BME280;76242;41.478;22.082;2024-02-26T11:24:13;98970.03;;;30.14;24.52
85794;BME280;76242;41.478;22.082;2024-02-26T11:26:46;98975.38;;;29.15;24.53
85794;BME280;76242;41.478;22.082;2024-02-26T11:29:16;98962.34;;;28.37;26.31
85794;BME280;76242;41.478;22.082;2024-02-26T11:31:44;98968.69;;;27.79;26.47
85794;BME280;76242;41.478;22.082;2024-02-26T11:34:11;98964.34;;;27.09;26.61
85794;BME280;76242;41.478;22.082;2024-02-26T11:36:37;98963.88;;;26.24;28.16
85794;BME280;76242;41.478;22.082;2024-02-26T11:39:04;98969.22;;;25.26;29.40
85794;BME280;76242;41.478;22.082;2024-02-26T11:41:42;98960.44;;;24.92;30.34
85794;BME280;76242;41.478;22.082;2024-02-26T11:44:11;98963.56;;;24.48;31.75
85794;BME280;76242;41.478;22.082;2024-02-26T11:46:42;98951.44;;;24.31;32.47
85794;BME280;76242;41.478;22.082;2024-02-26T11:52:06;98952.59;;;23.82;32.28
85794;BME280;76242;41.478;22.082;2024-02-26T11:54:52;98951.28;;;23.27;34.05
85794;BME280;76242;41.478;22.082;2024-02-26T11:57:38;98947.50;;;22.93;33.86
85794;BME280;76242;41.478;22.082;2024-02-26T12:05:21;98950.03;;;21.53;35.03
85794;BME280;76242;41.478;22.082;2024-02-26T12:07:52;98945.91;;;21.30;36.85
85794;BME280;76242;41.478;22.082;2024-02-26T12:12:53;98960.72;;;20.93;36.93
85794;BME280;76242;41.478;22.082;2024-02-26T12:15:18;98952.16;;;21.07;36.58
85794;BME280;76242;41.478;22.082;2024-02-26T12:17:48;98940.91;;;21.45;35.89
85794;BME280;76242;41.478;22.082;2024-02-26T12:20:16;98935.16;;;21.56;34.09
85794;BME280;76242;41.478;22.082;2024-02-26T12:22:45;98938.75;;;22.41;33.11
85794;BME280;76242;41.478;22.082;2024-02-26T12:25:14;98939.47;;;22.92;32.24
85794;BME280;76242;41.478;22.082;2024-02-26T12:27:40;98946.13;;;22.78;29.29
85794;BME280;76242;41.478;22.082;2024-02-26T12:30:06;98937.81;;;22.71;29.54
85794;BME280;76242;41.478;22.082;2024-02-26T12:32:41;98947.31;;;23.04;29.96
85794;BME280;76242;41.478;22.082;2024-02-26T12:35:07;98940.09;;;23.03;31.53
85794;BME280;76242;41.478;22.082;2024-02-26T12:37:32;98943.00;;;23.39;29.86
85794;BME280;76242;41.478;22.082;2024-02-26T12:39:58;98939.28;;;22.56;30.79
85794;BME280;76242;41.478;22.082;2024-02-26T12:42:24;98944.31;;;21.91;32.75
85794;BME280;76242;41.478;22.082;2024-02-26T12:44:50;98937.53;;;21.57;33.31
85794;BME280;76242;41.478;22.082;2024-02-26T12:47:16;98944.63;;;20.97;34.92
85794;BME280;76242;41.478;22.082;2024-02-26T12:49:47;98945.94;;;20.41;35.38
85794;BME280;76242;41.478;22.082;2024-02-26T12:52:13;98946.69;;;19.96;37.70
85794;BME280;76242;41.478;22.082;2024-02-26T12:54:39;98946.00;;;19.71;36.77
85794;BME280;76242;41.478;22.082;2024-02-26T12:57:06;98953.28;;;19.51;37.85
85794;BME280;76242;41.478;22.082;2024-02-26T12:59:34;98950.94;;;19.38;39.19
85794;BME280;76242;41.478;22.082;2024-02-26T13:02:01;98942.97;;;19.33;38.89
85794;BME280;76242;41.478;22.082;2024-02-26T13:04:29;98948.19;;;19.24;39.63
85794;BME280;76242;41.478;22.082;2024-02-26T13:06:55;98955.00;;;19.16;39.30
85794;BME280;76242;41.478;22.082;2024-02-26T13:09:26;98958.63;;;19.13;39.80
85794;BME280;76242;41.478;22.082;2024-02-26T13:11:55;98956.59;;;19.17;39.52
85794;BME280;76242;41.478;22.082;2024-02-26T13:14:21;98951.38;;;19.30;39.78
85794;BME280;76242;41.478;22.082;2024-02-26T13:17:00;98963.31;;;19.44;38.99
85794;BME280;76242;41.478;22.082;2024-02-26T13:19:26;98966.06;;;19.59;38.67
85794;BME280;76242;41.478;22.082;2024-02-26T13:21:55;98974.81;;;19.75;38.09
85794;BME280;76242;41.478;22.082;2024-02-26T13:24:21;98965.41;;;20.10;37.33
85794;BME280;76242;41.478;22.082;2024-02-26T13:26:54;98967.75;;;20.15;37.47
85794;BME280;76242;41.478;22.082;2024-02-26T13:29:19;98967.59;;;20.40;36.84
85794;BME280;76242;41.478;22.082;2024-02-26T13:31:45;98978.44;;;20.38;36.66
85794;BME280;76242;41.478;22.082;2024-02-26T13:34:29;98970.97;;;20.14;36.72
85794;BME280;76242;41.478;22.082;2024-02-26T13:36:56;98970.41;;;19.74;34.68
85794;BME280;76242;41.478;22.082;2024-02-26T13:39:23;98975.72;;;19.43;34.79
85794;BME280;76242;41.478;22.082;2024-02-26T13:41:49;98982.59;;;19.21;36.61
85794;BME280;76242;41.478;22.082;2024-02-26T13:44:15;98978.25;;;18.95;35.68
85794;BME280;76242;41.478;22.082;2024-02-26T13:46:41;98981.88;;;18.67;36.84
85794;BME280;76242;41.478;22.082;2024-02-26T13:49:08;98975.06;;;18.47;37.00
85794;BME280;76242;41.478;22.082;2024-02-26T13:51:34;98985.47;;;18.39;37.02
85794;BME280;76242;41.478;22.082;2024-02-26T13:54:01;98987.84;;;18.26;38.25
85794;BME280;76242;41.478;22.082;2024-02-26T13:56:27;98978.66;;;18.19;37.69
85794;BME280;76242;41.478;22.082;2024-02-26T13:58:52;98982.63;;;18.11;38.19
85794;BME280;76242;41.478;22.082;2024-02-26T14:01:18;98992.56;;;18.01;38.91
85794;BME280;76242;41.478;22.082;2024-02-26T14:03:44;98983.38;;;17.93;39.85
85794;BME280;76242;41.478;22.082;2024-02-26T14:06:10;98989.41;;;17.95;39.61
85794;BME280;76242;41.478;22.082;2024-02-26T14:08:36;98984.97;;;17.91;39.56
85794;BME280;76242;41.478;22.082;2024-02-26T14:11:01;98979.78;;;17.86;39.52
85794;BME280;76242;41.478;22.082;2024-02-26T14:13:27;98988.94;;;17.86;39.99
85794;BME280;76242;41.478;22.082;2024-02-26T14:15:53;98980.56;;;17.83;39.93
85794;BME280;76242;41.478;22.082;2024-02-26T14:18:18;98988.13;;;17.71;41.05
85794;BME280;76242;41.478;22.082;2024-02-26T14:20:44;98992.88;;;17.67;41.22
85794;BME280;76242;41.478;22.082;2024-02-26T14:23:10;98993.66;;;17.68;40.28
85794;BME280;76242;41.478;22.082;2024-02-26T14:25:36;98996.03;;;17.66;40.52
85794;BME280;76242;41.478;22.082;2024-02-26T14:28:02;99001.66;;;17.69;40.61
85794;BME280;76242;41.478;22.082;2024-02-26T14:30:28;99003.69;;;17.79;40.45
85794;BME280;76242;41.478;22.082;2024-02-26T14:32:55;99004.16;;;18.06;40.20
85794;BME280;76242;41.478;22.082;2024-02-26T14:35:20;99005.44;;;18.38;39.42
85794;BME280;76242;41.478;22.082;2024-02-26T14:37:46;99008.22;;;18.62;38.19
85794;BME280;76242;41.478;22.082;2024-02-26T14:40:14;99006.25;;;18.77;38.37
85794;BME280;76242;41.478;22.082;2024-02-26T14:42:40;99003.47;;;18.67;38.55
85794;BME280;76242;41.478;22.082;2024-02-26T14:45:06;99011.81;;;18.56;38.31
85794;BME280;76242;41.478;22.082;2024-02-26T14:47:34;99010.63;;;18.46;39.01
85794;BME280;76242;41.478;22.082;2024-02-26T14:50:01;99021.78;;;18.43;39.11
85794;BME280;76242;41.478;22.082;2024-02-26T14:52:27;99017.03;;;18.36;38.67
85794;BME280;76242;41.478;22.082;2024-02-26T14:58:15;99034.53;;;18.19;39.78
85794;BME280;76242;41.478;22.082;2024-02-26T15:00:46;99038.53;;;18.18;39.44
85794;BME280;76242;41.478;22.082;2024-02-26T15:03:12;99040.13;;;18.08;39.35